Taneytown, Maryland
Current Conditions -  °F | °C
As of 11:35 AM on Friday 24 Oct 2014 (Local Time) from KDMW Reporting Station
Clear Clear  
Wind Chill: 16°   Ceiling: Unl
Heat Index: 16°   Visibility: 10mi
Dew Point:   Wind: 12mph
Humidity: 42%   Direction: 320°NW
Pressure: 29.97"   Gusts: 18mph
Location:  39.66°N, 77.17°W
Report Text: KDMW 241535Z AUTO 32010G16KT 10SM CLR 16/03 A2997 RMK AO2
Loading
Personal Weather Stations






























Interactive Weather Map
Tropical Storm Tracking
New forecast layout! Learn more

10-Day Weather Forecast

Advertisements
Track Severe Weather on mobile